Terminal Aerodrome Forecast
Issued by NWS Cleveland, OH

Home | Current Version | Previous Version | Text Only | Print | Product List | Glossary On
Versions: 1 2 3 4 5 6 7 8 9 10 11 12 13 14 15 16 17 18
000
FTUS41 KCLE 231100
TAFMFD
TAF
KMFD 231125Z 2312/2412 19012KT 6SM -SHRA OVC035
     FM231500 18014KT P6SM OVC035
     FM231900 15010G20KT P6SM SCT020 OVC035
     FM240100 14018G28KT 4SM -SHRA SCT006 OVC012
     FM240500 17020G30KT P6SM VCSH BKN012 OVC020=

USA.gov is the U.S. government's official web portal to all federal, state and local government web resources and services.